Station History

Weather Underground - logo

Station Historical Data
Daily Summary for January 2, 2018 Units:  Metric    English   Both
« Previous Day
Next Day »
Daily Weekly Monthly Yearly Custom
  High: Low: Average:
Temperature: -17.8 °C 3.3 °C 9.2 °C
Dew Point: -17.8 °C 2 °C 5.8 °C
Humidity: Humidity % 55 % 81 %
Wind Speed: 0 km/h 0 km/h 0.5 km/h
Wind Gust: 0 km/h - -
Wind:- - WSW
Pressure: 0 hPa 1020.2 hPa -
Precipitation: 0 mm    
Historical Graphs
 
 
Tabular Data for January 2, 2018
Time Temperature Dew Point Pressure Wind Wind Speed Wind Gust Humidity Rainfall Rate (Hourly)
-17.8 °C -17.8 °C 0 hPa Calm     Humidity % 0 mm
00:03 6.1 °C 4.2 °C 1023.2 hPa Calm     88 % 0 mm
00:04 6.1 °C 4.2 °C 1023.2 hPa Calm     88 % 0 mm
00:09 6 °C 4.2 °C 1023.6 hPa Calm     88 % 0 mm
00:10 6 °C 4.2 °C 1023.6 hPa Calm     88 % 0 mm
00:15 5.8 °C 3.9 °C 1023.6 hPa Calm     88 % 0 mm
00:19 5.6 °C 3.7 °C 1023.6 hPa Calm     88 % 0 mm
00:24 5.3 °C 3.5 °C 1023.6 hPa Calm     88 % 0 mm
00:34 5.1 °C 3.4 °C 1023.9 hPa Calm     89 % 0 mm
00:36 5 °C 3.3 °C 1023.9 hPa Calm     89 % 0 mm
00:42 4.9 °C 3.4 °C 1023.6 hPa Calm     90 % 0 mm
00:43 4.9 °C 3.4 °C 1023.6 hPa Calm     90 % 0 mm
00:48 4.9 °C 3.4 °C 1023.9 hPa Calm     90 % 0 mm
00:49 4.9 °C 3.4 °C 1023.9 hPa Calm     90 % 0 mm
00:54 4.8 °C 3.3 °C 1023.6 hPa Calm     90 % 0 mm
00:57 4.8 °C 3.3 °C 1023.6 hPa Calm     90 % 0 mm
01:02 4.9 °C 3.6 °C 1023.6 hPa Calm     91 % 0 mm
01:03 4.9 °C 3.6 °C 1023.6 hPa Calm     91 % 0 mm
01:04 4.8 °C 3.5 °C 1023.6 hPa Calm     91 % 0 mm
01:14 4.7 °C 3.3 °C 1023.9 hPa Calm     91 % 0 mm
01:17 4.7 °C 3.3 °C 1023.9 hPa Calm     91 % 0 mm
01:21 4.7 °C 3.3 °C 1023.9 hPa Calm     91 % 0 mm
01:26 4.6 °C 3.3 °C 1023.9 hPa Calm     91 % 0 mm
01:27 4.6 °C 3.4 °C 1023.6 hPa Calm     92 % 0 mm
01:32 4.8 °C 3.6 °C 1023.9 hPa Calm     92 % 0 mm
01:37 4.8 °C 3.6 °C 1023.9 hPa Calm     92 % 0 mm
01:40 4.7 °C 3.6 °C 1023.9 hPa Calm     92 % 0 mm
01:42 4.7 °C 3.6 °C 1023.9 hPa Calm     92 % 0 mm
01:46 4.7 °C 3.5 °C 1023.9 hPa Calm     92 % 0 mm
01:51 4.6 °C 3.2 °C 1023.9 hPa Calm     91 % 0 mm
01:54 4.4 °C 3.1 °C 1023.9 hPa Calm     91 % 0 mm
01:55 4.4 °C 3.1 °C 1023.9 hPa Calm     91 % 0 mm
02:00 4.4 °C 3.1 °C 1023.9 hPa Calm     91 % 0 mm
02:01 4.4 °C 3.1 °C 1023.9 hPa Calm     91 % 0 mm
02:06 4.4 °C 3.1 °C 1023.9 hPa WNW 9.3 km/h 9.3 km/h 91 % 0 mm
02:07 4.4 °C 3.1 °C 1023.9 hPa Calm     91 % 0 mm
02:12 4.6 °C 3.4 °C 1023.6 hPa Calm     92 % 0 mm
02:13 4.6 °C 3.4 °C 1023.6 hPa Calm     92 % 0 mm
02:15 4.7 °C 3.5 °C 1023.6 hPa Calm     92 % 0 mm
02:19 4.7 °C 3.5 °C 1023.6 hPa Calm     92 % 0 mm
02:24 4.9 °C 3.7 °C 1023.6 hPa Calm     92 % 0 mm
02:28 5 °C 3.8 °C 1023.6 hPa Calm     92 % 0 mm
02:33 5.1 °C 3.7 °C 1023.6 hPa Calm     91 % 0 mm
02:37 5.1 °C 3.7 °C 1023.6 hPa Calm     91 % 0 mm
02:38 5.1 °C 3.7 °C 1023.2 hPa Calm     91 % 0 mm
02:43 5.1 °C 3.7 °C 1023.2 hPa Calm     91 % 0 mm
02:46 5.2 °C 4 °C 1023.2 hPa Calm     92 % 0 mm
02:51 5.3 °C 4 °C 1023.2 hPa Calm     91 % 0 mm
02:53 5.3 °C 3.9 °C 1023.2 hPa Calm     91 % 0 mm
02:57 5.2 °C 3.7 °C 1023.2 hPa Calm     90 % 0 mm
03:02 5.1 °C 3.6 °C 1023.2 hPa Calm     90 % 0 mm
03:03 5 °C 3.5 °C 1023.2 hPa Calm     90 % 0 mm
03:07 4.8 °C 3.3 °C 1023.2 hPa Calm     90 % 0 mm
03:11 4.6 °C 2.9 °C 1023.2 hPa Calm     89 % 0 mm
03:16 4.4 °C 2.9 °C 1022.9 hPa Calm     90 % 0 mm
03:18 4.3 °C 3 °C 1022.9 hPa Calm     91 % 0 mm
03:21 4.3 °C 2.9 °C 1022.9 hPa Calm     91 % 0 mm
03:24 4.3 °C 2.9 °C 1022.9 hPa Calm     91 % 0 mm
03:27 4.2 °C 2.9 °C 1022.9 hPa Calm     91 % 0 mm
03:32 4.2 °C 2.8 °C 1022.9 hPa Calm     91 % 0 mm
03:37 4.2 °C 2.8 °C 1022.6 hPa Calm     91 % 0 mm
03:38 4.1 °C 2.8 °C 1022.6 hPa Calm     91 % 0 mm
03:43 4.2 °C 3 °C 1022.6 hPa Calm     92 % 0 mm
03:48 4.1 °C 2.9 °C 1022.6 hPa Calm     92 % 0 mm
03:50 4.1 °C 2.9 °C 1022.6 hPa Calm     92 % 0 mm
03:55 3.9 °C 2.6 °C 1022.9 hPa Calm     91 % 0 mm
03:56 3.8 °C 2.3 °C 1022.9 hPa Calm     90 % 0 mm
03:57 3.8 °C 2.3 °C 1022.9 hPa WSW 1.6 km/h 1.6 km/h 90 % 0 mm
04:02 3.6 °C 2.2 °C 1022.9 hPa Calm     91 % 0 mm
04:04 3.5 °C 2.2 °C 1022.9 hPa WSW 1.9 km/h   91 % 0 mm
04:08 3.4 °C 2.1 °C 1022.9 hPa Calm     91 % 0 mm
04:09 3.4 °C 2.1 °C 1022.9 hPa Calm     91 % 0 mm
04:11 3.3 °C 2 °C 1022.9 hPa Calm     91 % 0 mm
04:16 3.3 °C 2.2 °C 1022.9 hPa Calm     92 % 0 mm
04:20 3.3 °C 2.2 °C 1022.9 hPa Calm     92 % 0 mm
04:25 3.3 °C 2.2 °C 1022.9 hPa Calm     92 % 0 mm
04:29 3.3 °C 2.2 °C 1023.2 hPa Calm     92 % 0 mm
04:34 3.4 °C 2.4 °C 1023.2 hPa Calm     93 % 0 mm
04:36 3.4 °C 2.4 °C 1023.2 hPa Calm     93 % 0 mm
04:39 3.5 °C 2.5 °C 1023.2 hPa Calm     93 % 0 mm
04:41 3.6 °C 2.6 °C 1023.2 hPa Calm     93 % 0 mm
04:44 3.7 °C 2.7 °C 1023.2 hPa Calm     93 % 0 mm
04:47 3.7 °C 2.7 °C 1023.2 hPa Calm     93 % 0 mm
04:52 3.8 °C 2.8 °C 1023.2 hPa Calm     93 % 0 mm
04:53 3.8 °C 2.8 °C 1023.2 hPa Calm     93 % 0 mm
04:56 3.9 °C 3.1 °C 1023.2 hPa Calm     94 % 0 mm
04:58 4.1 °C 3.2 °C 1023.2 hPa Calm     94 % 0 mm
05:04 4.3 °C 3.4 °C 1023.2 hPa Calm     94 % 0 mm
05:05 4.4 °C 3.5 °C 1023.2 hPa Calm     94 % 0 mm
05:09 4.5 °C 3.6 °C 1023.6 hPa Calm     94 % 0 mm
05:13 4.5 °C 3.4 °C 1023.6 hPa Calm     93 % 0 mm
05:15 4.6 °C 3.5 °C 1023.6 hPa Calm     93 % 0 mm
05:20 4.6 °C 3.6 °C 1023.6 hPa Calm     93 % 0 mm
05:21 4.6 °C 3.6 °C 1023.6 hPa Calm     93 % 0 mm
05:23 4.6 °C 3.6 °C 1023.6 hPa Calm     93 % 0 mm
05:26 4.7 °C 3.6 °C 1023.6 hPa Calm     93 % 0 mm
05:29 4.7 °C 3.6 °C 1023.6 hPa Calm     93 % 0 mm
05:32 4.8 °C 3.7 °C 1023.6 hPa Calm     93 % 0 mm
05:34 4.8 °C 3.8 °C 1023.6 hPa Calm     93 % 0 mm
05:39 5 °C 3.9 °C 1023.6 hPa Calm     93 % 0 mm
05:44 5.1 °C 3.9 °C 1023.6 hPa Calm     92 % 0 mm
05:47 5.1 °C 3.9 °C 1023.6 hPa Calm     92 % 0 mm
05:52 5 °C 3.8 °C 1023.6 hPa Calm     92 % 0 mm
05:53 5 °C 3.8 °C 1023.6 hPa Calm     92 % 0 mm
05:58 5 °C 3.8 °C 1023.9 hPa Calm     92 % 0 mm
06:03 4.9 °C 3.8 °C 1023.6 hPa Calm     92 % 0 mm
06:08 4.9 °C 3.8 °C 1023.6 hPa Calm     92 % 0 mm
06:09 4.9 °C 3.8 °C 1023.6 hPa Calm     92 % 0 mm
06:14 4.9 °C 3.8 °C 1023.9 hPa Calm     92 % 0 mm
06:19 4.9 °C 3.8 °C 1023.6 hPa Calm     92 % 0 mm
06:20 4.9 °C 3.7 °C 1023.9 hPa Calm     92 % 0 mm
06:25 4.8 °C 3.7 °C 1023.9 hPa Calm     92 % 0 mm
06:27 4.8 °C 3.4 °C 1023.6 hPa Calm     91 % 0 mm
06:32 4.7 °C 3.3 °C 1023.9 hPa Calm     91 % 0 mm
06:34 4.7 °C 3.3 °C 1023.9 hPa Calm     91 % 0 mm
06:36 4.6 °C 3.3 °C 1023.9 hPa Calm     91 % 0 mm
06:39 4.6 °C 3.4 °C 1023.9 hPa Calm     92 % 0 mm
06:42 4.5 °C 3.3 °C 1023.9 hPa Calm     92 % 0 mm
06:47 4.4 °C 3.3 °C 1023.9 hPa Calm     92 % 0 mm
06:49 4.4 °C 3.2 °C 1023.9 hPa Calm     92 % 0 mm
06:54 4.4 °C 3.2 °C 1023.9 hPa Calm     92 % 0 mm
06:55 4.4 °C 3.2 °C 1023.9 hPa Calm     92 % 0 mm
06:58 4.6 °C 3.5 °C 1023.6 hPa Calm     93 % 0 mm
07:03 4.6 °C 3.6 °C 1023.9 hPa Calm     93 % 0 mm
07:07 4.6 °C 3.4 °C 1023.6 hPa Calm     92 % 0 mm
07:12 4.6 °C 3.4 °C 1023.9 hPa Calm     92 % 0 mm
07:16 4.5 °C 3.2 °C 1023.6 hPa Calm     91 % 0 mm
07:20 4.4 °C 3.1 °C 1023.6 hPa Calm     91 % 0 mm
07:25 4.5 °C 3.4 °C 1023.6 hPa Calm     93 % 0 mm
07:28 4.6 °C 3.5 °C 1023.6 hPa Calm     93 % 0 mm
07:31 4.6 °C 3.6 °C 1023.6 hPa Calm     93 % 0 mm
07:33 4.6 °C 3.6 °C 1023.6 hPa Calm     93 % 0 mm
07:38 4.6 °C 3.4 °C 1023.6 hPa Calm     92 % 0 mm
07:39 4.6 °C 3.4 °C 1023.6 hPa Calm     92 % 0 mm
07:40 4.7 °C 3.5 °C 1023.6 hPa Calm     92 % 0 mm
07:44 4.7 °C 3.5 °C 1023.6 hPa Calm     92 % 0 mm
07:49 4.7 °C 3.5 °C 1023.6 hPa Calm     92 % 0 mm
07:50 4.7 °C 3.5 °C 1023.6 hPa Calm     92 % 0 mm
07:55 4.7 °C 3.5 °C 1023.6 hPa Calm     92 % 0 mm
07:56 4.7 °C 3.6 °C 1023.6 hPa Calm     92 % 0 mm
08:01 4.8 °C 3.7 °C 1023.9 hPa Calm     92 % 0 mm
08:06 5.1 °C 3.9 °C 1023.9 hPa Calm     92 % 0 mm
08:12 5.2 °C 4 °C 1023.9 hPa Calm     92 % 0 mm
08:13 5.2 °C 4 °C 1023.9 hPa Calm     92 % 0 mm
08:18 5.3 °C 4.1 °C 1023.9 hPa Calm     92 % 0 mm
08:19 5.4 °C 4.2 °C 1023.9 hPa Calm     92 % 0 mm
08:24 5.5 °C 4.3 °C 1024.3 hPa Calm     92 % 0 mm
08:29 5.7 °C 4.4 °C 1024.3 hPa Calm     92 % 0 mm
08:34 5.8 °C 4.6 °C 1023.9 hPa Calm     92 % 0 mm
08:39 5.9 °C 4.7 °C 1024.3 hPa Calm     92 % 0 mm
08:42 6.1 °C 4.8 °C 1024.3 hPa Calm     92 % 0 mm
08:47 6.2 °C 5 °C 1024.3 hPa Calm     92 % 0 mm
08:48 6.3 °C 5.1 °C 1024.3 hPa Calm     92 % 0 mm
08:49 6.3 °C 5.1 °C 1024.3 hPa Calm     92 % 0 mm
08:54 6.5 °C 5.4 °C 1024.3 hPa WSW 1.9 km/h 1.9 km/h 93 % 0 mm
08:57 6.6 °C 5.3 °C 1024.3 hPa SW 1.9 km/h   92 % 0 mm
09:02 6.8 °C 5.6 °C 1024.3 hPa Calm     92 % 0 mm
09:03 6.8 °C 5.6 °C 1024.3 hPa SE 1.9 km/h 1.9 km/h 92 % 0 mm
09:06 7 °C 5.8 °C 1024.3 hPa SE 1.9 km/h   92 % 0 mm
09:11 7.3 °C 6.1 °C 1024.3 hPa Calm     92 % 0 mm
09:13 7.4 °C 6.2 °C 1024.3 hPa Calm     92 % 0 mm
09:18 7.8 °C 6.4 °C 1024.3 hPa Calm     91 % 0 mm
09:23 8.2 °C 6.7 °C 1024.3 hPa Calm     90 % 0 mm
09:24 8.3 °C 6.7 °C 1024.3 hPa Calm     90 % 0 mm
09:26 8.4 °C 6.9 °C 1024.3 hPa Calm     90 % 0 mm
09:31 8.8 °C 6.9 °C 1024.3 hPa SE 1.6 km/h 1.6 km/h 88 % 0 mm
09:33 8.9 °C 7.1 °C 1024.3 hPa SE 1.9 km/h   88 % 0 mm
09:35 9.1 °C 7.2 °C 1024.3 hPa Calm     88 % 0 mm
09:40 9.3 °C 7.1 °C 1024.3 hPa Calm     86 % 0 mm
09:42 9.4 °C 7.2 °C 1024.3 hPa ESE 1.9 km/h 1.9 km/h 86 % 0 mm
09:46 9.6 °C 7.1 °C 1024.3 hPa SE 1.9 km/h 1.9 km/h 84 % 0 mm
09:47 9.6 °C 7.1 °C 1024.3 hPa SE 3.7 km/h 3.7 km/h 84 % 0 mm
09:51 9.8 °C 7.1 °C 1024.3 hPa Calm     83 % 0 mm
09:56 10.1 °C 7.3 °C 1024.3 hPa SE 1.9 km/h   83 % 0 mm
09:57 10.1 °C 7.3 °C 1024.3 hPa Calm     83 % 0 mm
10:02 10.3 °C 7.2 °C 1024.3 hPa SE 1.9 km/h 1.9 km/h 81 % 0 mm
10:07 10.6 °C 7.2 °C 1024.3 hPa SE 1.9 km/h   80 % 0 mm
10:08 10.6 °C 7.2 °C 1024.3 hPa Calm     80 % 0 mm
10:13 10.7 °C 7.4 °C 1024.3 hPa Calm     80 % 0 mm
10:14 10.8 °C 7.5 °C 1024.3 hPa SE 1.6 km/h   80 % 0 mm
10:18 10.9 °C 7.6 °C 1023.9 hPa SE 1.9 km/h   80 % 0 mm
10:21 11.1 °C 7.6 °C 1023.9 hPa SE 1.9 km/h   79 % 0 mm
10:26 11.2 °C 7.7 °C 1023.9 hPa SE 1.9 km/h   79 % 0 mm
10:29 11.3 °C 7.6 °C 1023.9 hPa SE 1.9 km/h 1.9 km/h 78 % 0 mm
10:34 11.6 °C 7.8 °C 1023.9 hPa Calm     78 % 0 mm
10:36 11.6 °C 7.9 °C 1023.9 hPa Calm     78 % 0 mm
10:41 11.9 °C 8 °C 1023.9 hPa Calm     77 % 0 mm
10:42 11.9 °C 8.1 °C 1023.6 hPa Calm     77 % 0 mm
10:44 12.1 °C 8.2 °C 1023.6 hPa Calm     77 % 0 mm
10:49 12.3 °C 7.8 °C 1023.6 hPa Calm     74 % 0 mm
10:50 12.3 °C 7.8 °C 1023.6 hPa Calm     74 % 0 mm
10:51 12.4 °C 7.9 °C 1023.6 hPa Calm     74 % 0 mm
10:55 12.6 °C 7.9 °C 1023.6 hPa Calm     73 % 0 mm
11:00 12.9 °C 8.2 °C 1023.2 hPa Calm     73 % 0 mm
11:01 12.9 °C 7.8 °C 1023.2 hPa Calm     71 % 0 mm
11:05 13.2 °C 7.9 °C 1023.2 hPa Calm     70 % 0 mm
11:06 13.3 °C 7.9 °C 1023.2 hPa Calm     70 % 0 mm
11:11 13.6 °C 7.8 °C 1023.2 hPa Calm     68 % 0 mm
11:12 13.6 °C 7.6 °C 1023.2 hPa Calm     67 % 0 mm
11:17 13.8 °C 7.6 °C 1023.2 hPa Calm     66 % 0 mm
11:18 13.9 °C 7.8 °C 1023.2 hPa Calm     67 % 0 mm
11:23 14.1 °C 7.8 °C 1023.2 hPa Calm     66 % 0 mm
11:27 14.2 °C 7.7 °C 1022.9 hPa Calm     65 % 0 mm
11:32 14.2 °C 7.9 °C 1022.9 hPa Calm     66 % 0 mm
11:36 14.3 °C 7.8 °C 1022.6 hPa Calm     65 % 0 mm
11:42 14.4 °C 7.7 °C 1022.6 hPa Calm     64 % 0 mm
11:43 14.5 °C 7.8 °C 1022.6 hPa Calm     64 % 0 mm
11:47 14.7 °C 7.7 °C 1022.6 hPa Calm     63 % 0 mm
11:53 14.7 °C 7.2 °C 1022.2 hPa Calm     61 % 0 mm
11:55 14.7 °C 7.7 °C 1022.2 hPa Calm     63 % 0 mm
11:59 14.8 °C 7.6 °C 1022.2 hPa Calm     62 % 0 mm
12:04 14.8 °C 7.6 °C 1022.2 hPa Calm     62 % 0 mm
12:06 14.8 °C 7.6 °C 1022.2 hPa WNW 1.9 km/h 1.9 km/h 62 % 0 mm
12:11 14.9 °C 7.4 °C 1022.2 hPa WNW 1.9 km/h   61 % 0 mm
12:15 14.9 °C 7.7 °C 1022.2 hPa Calm     62 % 0 mm
12:20 15 °C 8 °C 1021.9 hPa Calm     63 % 0 mm
12:21 15.1 °C 8.1 °C 1021.9 hPa Calm     63 % 0 mm
12:30 15.1 °C 7.8 °C 1021.6 hPa Calm     62 % 0 mm
12:35 15.1 °C 7.8 °C 1021.6 hPa WNW 1.9 km/h   62 % 0 mm
12:37 15.1 °C 7.9 °C 1021.6 hPa Calm     62 % 0 mm
12:39 15.1 °C 7.9 °C 1021.6 hPa Calm     62 % 0 mm
12:42 15.2 °C 7.9 °C 1021.6 hPa West 1.9 km/h 1.9 km/h 62 % 0 mm
12:46 15.3 °C 8.1 °C 1021.2 hPa WNW 1.9 km/h 1.9 km/h 62 % 0 mm
12:49 15.3 °C 7.8 °C 1021.2 hPa Calm     61 % 0 mm
12:52 15.3 °C 8.1 °C 1021.2 hPa Calm     62 % 0 mm
12:57 15.4 °C 8.2 °C 1021.2 hPa Calm     62 % 0 mm
12:58 15.4 °C 7.9 °C 1021.2 hPa WNW 1.9 km/h 1.9 km/h 61 % 0 mm
13:00 15.4 °C 8.2 °C 1021.2 hPa Calm   0.2 km/h 62 % 0 mm
13:04 15.5 °C 8 °C 1021.2 hPa West 1.9 km/h   61 % 0 mm
13:07 15.6 °C 8.3 °C 1021.2 hPa Calm     62 % 0 mm
13:12 15.6 °C 8.1 °C 1020.9 hPa Calm     61 % 0 mm
13:17 15.6 °C 8.1 °C 1020.9 hPa NW 1.9 km/h   61 % 0 mm
13:22 15.7 °C 8.2 °C 1020.9 hPa NW 1.9 km/h 1.9 km/h 61 % 0 mm
13:27 15.8 °C 8.3 °C 1020.9 hPa NW 1.9 km/h 1.9 km/h 61 % 0 mm
13:30 15.8 °C 8.3 °C 1020.9 hPa West 1.9 km/h 1.9 km/h 61 % 0 mm
13:31 15.9 °C 8.6 °C 1020.9 hPa West 1.9 km/h   62 % 0 mm
13:36 16.1 °C 8.3 °C 1020.9 hPa Calm     60 % 0 mm
13:41 16.2 °C 8.4 °C 1020.9 hPa Calm     60 % 0 mm
13:46 16.3 °C 8.2 °C 1020.9 hPa SW 3.2 km/h 3.2 km/h 59 % 0 mm
13:47 16.3 °C 8.1 °C 1020.9 hPa SW 3.7 km/h 3.7 km/h 58 % 0 mm
13:50 16.3 °C 8.3 °C 1020.9 hPa NW 1.9 km/h 1.9 km/h 59 % 0 mm
13:54 16.4 °C 8.1 °C 1020.5 hPa Calm     58 % 0 mm
13:58 16.4 °C 8.2 °C 1020.5 hPa WNW 1.9 km/h 1.9 km/h 58 % 0 mm
14:06 16.7 °C 8.3 °C 1020.5 hPa NW 1.9 km/h 1.9 km/h 58 % 0 mm
14:09 16.8 °C 8.4 °C 1020.5 hPa WNW 1.9 km/h 1.9 km/h 58 % 0 mm
14:15 16.8 °C 8.2 °C 1020.5 hPa WNW 1.9 km/h   57 % 0 mm
14:16 16.8 °C 8.2 °C 1020.5 hPa West 3.2 km/h 3.2 km/h 57 % 0 mm
14:21 16.9 °C 8.1 °C 1020.5 hPa WNW 1.9 km/h 1.9 km/h 56 % 0 mm
14:26 16.9 °C 8.1 °C 1020.5 hPa WNW 1.9 km/h   56 % 0 mm
14:28 16.9 °C 8.1 °C 1020.5 hPa NW 3.7 km/h 3.7 km/h 56 % 0 mm
14:29 16.9 °C 7.8 °C 1020.5 hPa NW 3.7 km/h 3.7 km/h 55 % 0 mm
14:34 16.9 °C 8.1 °C 1020.5 hPa WNW 3.7 km/h 3.7 km/h 56 % 0 mm
14:36 16.9 °C 8.1 °C 1020.5 hPa NW 1.9 km/h 1.9 km/h 56 % 0 mm
14:40 16.9 °C 8.1 °C 1020.5 hPa NW 1.9 km/h 1.9 km/h 56 % 0 mm
14:45 16.9 °C 8.1 °C 1020.5 hPa NW 1.9 km/h 1.9 km/h 56 % 0 mm
14:46 16.9 °C 8.1 °C 1020.5 hPa NW 1.9 km/h 1.9 km/h 56 % 0 mm
14:49 16.9 °C 8.1 °C 1020.5 hPa West 1.9 km/h   56 % 0 mm
14:52 17 °C 8.2 °C 1020.5 hPa WNW 1.9 km/h 1.9 km/h 56 % 0 mm
14:57 17 °C 7.9 °C 1020.5 hPa NW 1.9 km/h 1.9 km/h 55 % 0 mm
14:58 17 °C 7.9 °C 1020.5 hPa NW 3.7 km/h 3.7 km/h 55 % 0 mm
15:03 17 °C 7.9 °C 1020.5 hPa NW 3.7 km/h 3.7 km/h 55 % 0 mm
15:09 16.9 °C 7.8 °C 1020.9 hPa NW 1.9 km/h   55 % 0 mm
15:10 16.9 °C 8.1 °C 1020.9 hPa Calm     56 % 0 mm
15:13 16.9 °C 7.8 °C 1020.9 hPa Calm     55 % 0 mm
15:15 16.9 °C 7.8 °C 1020.9 hPa Calm     55 % 0 mm
15:20 16.9 °C 8.1 °C 1020.9 hPa NW 1.9 km/h   56 % 0 mm
15:21 16.8 °C 7.7 °C 1020.9 hPa NW 1.9 km/h   55 % 0 mm
15:26 16.8 °C 7.9 °C 1020.9 hPa NW 1.9 km/h 1.9 km/h 56 % 0 mm
15:28 16.8 °C 7.9 °C 1020.9 hPa NNW 3.2 km/h 3.2 km/h 56 % 0 mm
15:33 16.7 °C 7.9 °C 1020.9 hPa WNW 1.9 km/h 1.9 km/h 56 % 0 mm
15:34 16.7 °C 7.8 °C 1020.9 hPa NW 1.9 km/h 1.9 km/h 56 % 0 mm
15:39 16.6 °C 8 °C 1020.5 hPa NW 1.9 km/h 1.9 km/h 57 % 0 mm
15:42 16.6 °C 8 °C 1020.9 hPa NW 3.7 km/h 3.7 km/h 57 % 0 mm
15:46 16.4 °C 8.4 °C 1020.9 hPa NW 1.6 km/h 1.6 km/h 59 % 0 mm
15:47 16.4 °C 8.3 °C 1020.9 hPa WNW 1.9 km/h 1.9 km/h 59 % 0 mm
15:51 16.3 °C 8.5 °C 1020.9 hPa WNW 1.9 km/h 1.9 km/h 60 % 0 mm
15:53 16.2 °C 8.4 °C 1020.9 hPa NW 1.9 km/h 1.9 km/h 60 % 0 mm
15:58 16.1 °C 8.3 °C 1020.9 hPa WNW 1.9 km/h   60 % 0 mm
16:03 15.9 °C 8.2 °C 1020.9 hPa WNW 3.7 km/h 3.7 km/h 60 % 0 mm
16:04 15.9 °C 8.1 °C 1020.9 hPa NW 1.9 km/h 1.9 km/h 60 % 0 mm
16:09 15.8 °C 8.3 °C 1020.9 hPa West 1.9 km/h 1.9 km/h 61 % 0 mm
16:10 15.7 °C 8.2 °C 1020.9 hPa NW 3.7 km/h 3.7 km/h 61 % 0 mm
16:13 15.7 °C 8.2 °C 1020.5 hPa NNW 1.6 km/h 1.6 km/h 61 % 0 mm
16:18 15.6 °C 8.3 °C 1020.5 hPa Calm     62 % 0 mm
16:23 15.4 °C 8.2 °C 1020.5 hPa NW 1.6 km/h 1.6 km/h 62 % 0 mm
16:25 15.3 °C 8.3 °C 1020.5 hPa NW 1.9 km/h 1.9 km/h 63 % 0 mm
16:26 15.3 °C 8.3 °C 1020.5 hPa NW 1.9 km/h   63 % 0 mm
16:31 15.3 °C 8.3 °C 1020.9 hPa Calm     63 % 0 mm
16:32 15.2 °C 8.2 °C 1020.9 hPa Calm     63 % 0 mm
16:37 15.1 °C 8.3 °C 1020.5 hPa NW 1.9 km/h 1.9 km/h 64 % 0 mm
16:42 14.9 °C 8.4 °C 1020.5 hPa Calm     65 % 0 mm
16:47 14.8 °C 8.3 °C 1020.5 hPa Calm     65 % 0 mm
16:48 14.8 °C 8.3 °C 1020.2 hPa NW 1.9 km/h 1.9 km/h 65 % 0 mm
16:53 14.7 °C 8.4 °C 1020.5 hPa Calm     66 % 0 mm
16:54 14.7 °C 8.4 °C 1020.5 hPa NW 1.6 km/h   66 % 0 mm
16:55 14.7 °C 8.4 °C 1020.5 hPa NW 1.9 km/h 1.9 km/h 66 % 0 mm
16:57 14.6 °C 8.3 °C 1020.5 hPa Calm     66 % 0 mm
17:00 14.5 °C 8.2 °C 1020.5 hPa Calm     66 % 0 mm
17:04 14.4 °C 8.3 °C 1020.5 hPa Calm     67 % 0 mm
17:05 14.3 °C 8.3 °C 1020.5 hPa Calm     67 % 0 mm
17:10 14.2 °C 8.2 °C 1020.5 hPa Calm     67 % 0 mm
17:15 14.1 °C 8.3 °C 1020.5 hPa Calm     68 % 0 mm
17:19 14 °C 8.2 °C 1020.9 hPa Calm     68 % 0 mm
17:23 13.8 °C 8.2 °C 1020.9 hPa Calm     69 % 0 mm
17:28 13.5 °C 8.1 °C 1020.9 hPa Calm     70 % 0 mm
17:29 13.4 °C 8.1 °C 1020.9 hPa Calm     70 % 0 mm
17:34 13.1 °C 7.9 °C 1020.9 hPa Calm     71 % 0 mm
17:39 13.1 °C 8.1 °C 1020.9 hPa Calm     72 % 0 mm
17:44 13.1 °C 7.9 °C 1020.9 hPa Calm     71 % 0 mm
17:48 13.1 °C 7.9 °C 1020.9 hPa Calm     71 % 0 mm
17:52 13.2 °C 8 °C 1020.9 hPa Calm     71 % 0 mm
17:55 13.2 °C 8 °C 1020.9 hPa Calm     71 % 0 mm
18:00 13.1 °C 7.9 °C 1020.9 hPa Calm     71 % 0 mm
18:05 12.9 °C 7.9 °C 1020.5 hPa Calm     72 % 0 mm
18:06 12.9 °C 7.9 °C 1020.5 hPa Calm     72 % 0 mm
18:07 12.8 °C 7.9 °C 1020.5 hPa Calm     72 % 0 mm
18:11 12.7 °C 7.9 °C 1020.5 hPa Calm     73 % 0 mm
18:16 12.5 °C 8 °C 1020.5 hPa Calm     74 % 0 mm
18:17 12.5 °C 8 °C 1020.5 hPa Calm     74 % 0 mm
18:20 12.4 °C 7.9 °C 1020.5 hPa Calm     74 % 0 mm
18:22 12.3 °C 8 °C 1020.5 hPa Calm     75 % 0 mm
18:27 12.2 °C 7.9 °C 1020.5 hPa Calm     75 % 0 mm
18:28 12.1 °C 7.8 °C 1020.5 hPa Calm     75 % 0 mm
18:33 12.1 °C 7.9 °C 1020.5 hPa Calm     76 % 0 mm
18:38 11.9 °C 7.8 °C 1020.5 hPa Calm     76 % 0 mm
18:39 11.9 °C 7.8 °C 1020.5 hPa Calm     76 % 0 mm
18:45 11.8 °C 7.9 °C 1020.2 hPa Calm     77 % 0 mm
18:46 11.8 °C 7.9 °C 1020.5 hPa Calm     77 % 0 mm
18:51 11.7 °C 7.8 °C 1020.5 hPa Calm     77 % 0 mm
18:53 11.6 °C 7.9 °C 1020.5 hPa Calm     78 % 0 mm
18:57 11.4 °C 7.7 °C 1020.5 hPa Calm     78 % 0 mm
18:59 11.3 °C 7.8 °C 1020.5 hPa Calm     79 % 0 mm
19:04 11.1 °C 7.7 °C 1020.5 hPa Calm     80 % 0 mm
19:08 10.9 °C 7.6 °C 1020.5 hPa Calm     80 % 0 mm
19:15 10.7 °C 7.6 °C 1020.2 hPa Calm     81 % 0 mm
19:20 10.6 °C 7.6 °C 1020.2 hPa Calm     82 % 0 mm
19:25 10.4 °C 7.5 °C 1020.2 hPa Calm     82 % 0 mm
19:30 10.3 °C 7.4 °C 1020.2 hPa Calm     82 % 0 mm
19:35 10.4 °C 7.4 °C 1020.5 hPa Calm     82 % 0 mm
19:40 10.2 °C 7.3 °C 1020.5 hPa Calm     82 % 0 mm
19:45 9.9 °C 7.2 °C 1020.2 hPa Calm     83 % 0 mm
19:49 9.8 °C 7 °C 1020.5 hPa Calm     83 % 0 mm
19:51 9.7 °C 7 °C 1020.5 hPa Calm     83 % 0 mm
19:56 9.6 °C 7 °C 1020.5 hPa Calm     84 % 0 mm
19:58 9.5 °C 6.9 °C 1020.5 hPa Calm     84 % 0 mm
20:03 9.3 °C 6.8 °C 1020.5 hPa Calm     84 % 0 mm
20:07 9.2 °C 6.6 °C 1020.5 hPa Calm     84 % 0 mm
20:12 9.1 °C 6.7 °C 1020.5 hPa Calm     85 % 0 mm
20:15 9 °C 6.6 °C 1020.5 hPa Calm     85 % 0 mm
20:20 9 °C 6.8 °C 1020.5 hPa Calm     86 % 0 mm
20:22 9.1 °C 6.7 °C 1020.5 hPa NE 1.9 km/h   85 % 0 mm
20:27 9.1 °C 6.7 °C 1020.9 hPa Calm     85 % 0 mm
20:32 9.1 °C 6.7 °C 1020.9 hPa Calm     85 % 0 mm
20:37 9.1 °C 6.7 °C 1020.9 hPa Calm     85 % 0 mm
20:41 9.1 °C 6.7 °C 1020.9 hPa Calm     85 % 0 mm
20:46 9 °C 6.8 °C 1020.5 hPa NE 1.6 km/h 1.6 km/h 86 % 0 mm
20:48 9.1 °C 6.8 °C 1020.5 hPa NE 1.9 km/h   86 % 0 mm
20:53 9.2 °C 6.9 °C 1020.9 hPa Calm     86 % 0 mm
20:54 9.2 °C 6.8 °C 1020.9 hPa NE 1.6 km/h   85 % 0 mm
20:59 9.2 °C 6.8 °C 1020.5 hPa NE 1.9 km/h 1.9 km/h 85 % 0 mm
21:04 9.1 °C 6.7 °C 1020.5 hPa Calm     85 % 0 mm
21:05 9.1 °C 6.9 °C 1020.5 hPa NE 1.9 km/h   86 % 0 mm
21:10 9.1 °C 6.7 °C 1020.5 hPa Calm     85 % 0 mm
21:15 8.8 °C 6.4 °C 1020.9 hPa Calm     85 % 0 mm
21:16 8.7 °C 6.3 °C 1020.9 hPa Calm     85 % 0 mm
21:21 8.4 °C 6.2 °C 1020.5 hPa Calm     86 % 0 mm
21:25 8.3 °C 6.3 °C 1020.9 hPa Calm     87 % 0 mm
21:29 8.2 °C 6.2 °C 1020.9 hPa Calm     87 % 0 mm
21:34 8 °C 5.9 °C 1021.2 hPa Calm     87 % 0 mm
21:36 7.9 °C 6.1 °C 1021.2 hPa Calm     88 % 0 mm
21:41 7.7 °C 5.8 °C 1021.2 hPa Calm     88 % 0 mm
21:42 7.7 °C 5.8 °C 1021.2 hPa Calm     88 % 0 mm
21:47 7.6 °C 5.8 °C 1021.2 hPa Calm     89 % 0 mm
21:52 7.5 °C 5.9 °C 1021.6 hPa Calm     90 % 0 mm
21:53 7.4 °C 5.8 °C 1021.6 hPa Calm     90 % 0 mm
21:58 7.2 °C 5.7 °C 1021.6 hPa Calm     90 % 0 mm
22:01 7.2 °C 5.6 °C 1021.6 hPa Calm     90 % 0 mm
22:06 7.1 °C 5.5 °C 1021.6 hPa Calm     90 % 0 mm
22:07 7 °C 5.6 °C 1021.6 hPa Calm     91 % 0 mm
22:12 7 °C 5.6 °C 1021.6 hPa Calm     91 % 0 mm
22:13 7 °C 5.6 °C 1021.6 hPa Calm     91 % 0 mm
22:18 7 °C 5.8 °C 1021.6 hPa Calm     92 % 0 mm
22:19 6.9 °C 5.7 °C 1021.6 hPa Calm     92 % 0 mm
22:24 6.8 °C 5.4 °C 1021.6 hPa Calm     91 % 0 mm
22:25 6.8 °C 5.4 °C 1021.6 hPa Calm     91 % 0 mm
22:28 6.8 °C 5.6 °C 1021.6 hPa Calm     92 % 0 mm
22:32 6.8 °C 5.6 °C 1021.6 hPa Calm     92 % 0 mm
22:37 6.8 °C 5.6 °C 1021.6 hPa Calm     92 % 0 mm
22:38 6.8 °C 5.6 °C 1021.6 hPa Calm     92 % 0 mm
22:39 6.8 °C 5.6 °C 1021.6 hPa Calm     92 % 0 mm
22:44 6.7 °C 5.5 °C 1021.6 hPa Calm     92 % 0 mm
22:49 6.7 °C 5.4 °C 1021.6 hPa Calm     92 % 0 mm
22:50 6.7 °C 5.4 °C 1021.6 hPa Calm     92 % 0 mm
22:55 6.6 °C 5.3 °C 1021.6 hPa Calm     92 % 0 mm
22:57 6.6 °C 5.3 °C 1021.6 hPa Calm     92 % 0 mm
23:02 6.6 °C 5.3 °C 1021.6 hPa Calm     92 % 0 mm
23:03 6.6 °C 5.4 °C 1021.6 hPa Calm     92 % 0 mm
23:08 6.6 °C 5.4 °C 1021.6 hPa Calm     92 % 0 mm
23:09 6.6 °C 5.4 °C 1021.6 hPa Calm     92 % 0 mm
23:10 6.6 °C 5.4 °C 1021.6 hPa Calm     92 % 0 mm
23:14 6.7 °C 5.7 °C 1021.6 hPa Calm     93 % 0 mm
23:19 7.1 °C 6 °C 1021.6 hPa NE 1.9 km/h   93 % 0 mm
23:23 7.2 °C 5.9 °C 1021.6 hPa North 1.9 km/h 1.9 km/h 92 % 0 mm
23:28 7.3 °C 5.9 °C 1021.6 hPa WNW 1.9 km/h   91 % 0 mm
23:30 7.3 °C 5.9 °C 1021.6 hPa Calm     91 % 0 mm
23:35 7.3 °C 5.8 °C 1021.6 hPa Calm     90 % 0 mm
23:38 7.4 °C 5.8 °C 1021.6 hPa Calm     90 % 0 mm
23:39 7.4 °C 5.8 °C 1021.6 hPa Calm     90 % 0 mm
23:43 7.4 °C 5.9 °C 1021.2 hPa Calm     90 % 0 mm
23:49 7.5 °C 5.9 °C 1021.2 hPa Calm     90 % 0 mm
23:54 7.5 °C 5.9 °C 1021.2 hPa Calm     90 % 0 mm
23:59 7.6 °C 6 °C 1020.9 hPa Calm     90 % 0 mm
Park Place, Exeter, Tulare County, California, USA
Compliments of Weather Underground - 3.5 mb